A- A+ FrançaisEnglishEspañol中国

Services sur Internet Soldes sur Internet Des idées de cadeaux Météo Météo aéro

La météo à : Autours de vous Tarbes-Lourdes-PyrénéesCourchevel Montauban-Ville Toulouse-Lasbordes

manche à air

La météo aéronautique pour les pilotes, la préparation du vol avec les METAR (METeorological Aerodrome Report, message d'observation des conditions météorologiques pour l'aviation) et Les TAF (Terminal Aerodrome Forecast : message de prévision à court terme des conditions météorologiques pour l'aviation). Et les autres ressources comme les VAC (Visual Approch Chart) et les NOTAM (Notice To Airman) pour préprer les vols.

Aéroport Sandspit (Canada) / OACI CYZP/ IATA YZP

L'altitude de l'aéroport Sandspit est de 6 m = 20 ft. Il est situé à proximité de Sandspit (Canada). La météo générale à 5 jours est disponible pour Skidegate Landing situé à 13.2 km.

METAR de l'aéroport Sandspit - CYZP

CYZP 291000Z AUTO 34016KT 9SM CLR 11/07 A3019 RMK SLP223

Décodage du METAR de l'aéroport Sandspit (CA)

METAR émis par CYZP le dimanche 29 septembre 2019 à 10:00 heure TU. C'est un METAR généré automatiquement. Attention ce METAR est obsolète car il a été émis il y a 20 heure et 34 minutes.

La visibilité est de 14.5 km = 9 sm.

La température est de 11°C = 52 °F et le point rosée est de 7°C = 45 °F . Ce qui correspond à 76% d'humidité relative.

Le QNH est de 1022 hPa = 30.18 inHg

Vent de 16 kt = 30 km/h, orienté à 340°.

Pas de nuages.

RMK SLP223

TAF de l'aéroport Sandspit - CYZP

CYZP 290638Z 2907/2919 32018G28KT P6SM SKC BECMG 2910/2912 32010G20KT RMK FCST BASED ON AUTO OBS. NXT FCST BY 291300Z

CYZP 290638Z 2907/2919 32018G28KT P6SM ciel dégagé devenant 2910/2912 32010G20KT remarques trombe ST BASED ON AUTO OBS. NXT trombe ST BY 291300Z

Aéroport à proximité de Sandspit

Météo générale à 5 jours à Skidegate Landing (13.2 km)Aéroport Masset (88 km)Aéroport Prince Rupert (146 km)Aéroport Annette Island (199 km)Aéroport Ketchikan (234 km)Aéroport Terrace (252 km)Aéroport Klawock (271 km)

Vue aérienne de l'aéroport Sandspit

NOTAM de l'aéroport Sandspit

Les NOTAM sont fournis sans aucune garantie de leur actualité. Le pilote est le seul responsable de la vérification de sa validité avant de l'utiliser opérationnellement pour préparer un vol ou l'utiliser lors de sa navigation.

NOTAM (du lundi 9 septembre 2019 à 20:15 au samedi 2 novembre 2019 à 23:59)

!YZP 09/003 YZP
ZZP- DEAD TREE NDB 248 U/S

1909092015-1911012359EST
CREATED: 09 Sep 2019 20:17:00
SOURCE: CYKAYFYX

Sources des données